Search for airport 
image banner adimage banner adimage banner ad
image banner ad

KCWI - Clinton Muni

Located in Clinton, United States

ICAO - CWI, IATA - CWI

Data provided by Airmate  

General information

Coordinates: N41°49'51" W90°19'44"
Elevation is 708 feet MSL.
Magnetic variation is 00° East
View others Airports in Iowa

Operational data

Special qualification required
Current time UTC:
Current local time:
Weather
METAR: KCWI 181656Z AUTO 05005KT 10SM CLR 28/21 A2980 RMK AO2 PRESFR SLP089 T02830206
View NOTAMs / SUP AIP / TFR affecting this airport [VIEW]
Communications frequencies: [VIEW]

Runways:

RWY identifierQFULength (ft)Width (ft)SurfaceLDA (ft)
0330°5204100CONC5204
21210°5204100CONC5204
14144°420175CONC4200
32325°420175CONC4200

Airport contact information

Address: Clinton United States

Satellite view of KCWI